createdAt,value
2024-03-30T00:00:26.003Z,93758.00
2024-03-30T00:01:23.963Z,93779.00
2024-03-30T00:02:23.993Z,93771.00
2024-03-30T00:03:24.015Z,93781.00
2024-03-30T00:04:24.011Z,93790.00
2024-03-30T00:05:24.001Z,93769.00
2024-03-30T00:06:24.004Z,93806.00
2024-03-30T00:07:24.019Z,93780.00
2024-03-30T00:08:24.010Z,93782.00
2024-03-30T00:09:23.997Z,93780.00
2024-03-30T00:10:24.004Z,93782.00
2024-03-30T00:11:24.005Z,93778.00
2024-03-30T00:12:23.985Z,93774.00
2024-03-30T00:13:24.033Z,93787.00
2024-03-30T00:14:24.044Z,93775.00
2024-03-30T00:15:24.050Z,93764.00
2024-03-30T00:16:24.025Z,93769.00
2024-03-30T00:17:24.047Z,93759.00
2024-03-30T00:18:24.040Z,93778.00
2024-03-30T00:19:24.052Z,93785.00
2024-03-30T00:20:24.058Z,93769.00
2024-03-30T00:21:23.970Z,93761.00
2024-03-30T00:22:24.034Z,93770.00
2024-03-30T00:23:23.992Z,93797.00
2024-03-30T00:24:24.005Z,93779.00
2024-03-30T00:25:24.804Z,93775.00
2024-03-30T00:26:24.105Z,93767.00
2024-03-30T00:27:24.344Z,93759.00
2024-03-30T00:28:24.071Z,93772.00
2024-03-30T00:29:24.068Z,93773.00
2024-03-30T00:30:24.088Z,93775.00
2024-03-30T00:31:24.058Z,93759.00
2024-03-30T00:32:24.061Z,93744.00
2024-03-30T00:33:24.084Z,93771.00
2024-03-30T00:34:24.032Z,93778.00
2024-03-30T00:35:24.137Z,93771.00
2024-03-30T00:36:24.116Z,93773.00
2024-03-30T00:37:24.167Z,93765.00
2024-03-30T00:38:24.142Z,93756.00
2024-03-30T00:39:24.099Z,93758.00
2024-03-30T00:40:24.175Z,93747.00
2024-03-30T00:41:24.163Z,93761.00
2024-03-30T00:42:24.148Z,93757.00
2024-03-30T00:43:24.022Z,93746.00
2024-03-30T00:44:24.159Z,93754.00
2024-03-30T00:45:24.032Z,93758.00
2024-03-30T00:46:24.046Z,93762.00
2024-03-30T00:47:26.527Z,93740.00
2024-03-30T00:48:25.058Z,93753.00
2024-03-30T00:49:24.044Z,93783.00
2024-03-30T00:50:24.051Z,93803.00
2024-03-30T00:51:24.059Z,93737.00
2024-03-30T00:52:24.087Z,93737.00
2024-03-30T00:53:24.802Z,93736.00
2024-03-30T00:54:24.261Z,93728.00
2024-03-30T00:55:24.248Z,93755.00
2024-03-30T00:56:24.315Z,93734.00
2024-03-30T00:57:24.327Z,93735.00
2024-03-30T00:58:24.332Z,93731.00
2024-03-30T00:59:24.315Z,93734.00
2024-03-30T01:00:24.403Z,93736.00
2024-03-30T01:01:24.370Z,93710.00
2024-03-30T01:02:24.464Z,93718.00
2024-03-30T01:03:24.438Z,93712.00
2024-03-30T01:04:24.452Z,93720.00
2024-03-30T01:05:24.521Z,93723.00
2024-03-30T01:06:24.483Z,93719.00
2024-03-30T01:07:24.576Z,93722.00
2024-03-30T01:08:24.640Z,93726.00
2024-03-30T01:09:24.591Z,93736.00
2024-03-30T01:10:24.666Z,93730.00
2024-03-30T01:11:24.635Z,93727.00
2024-03-30T01:12:24.736Z,93740.00
2024-03-30T01:13:24.677Z,93713.00
2024-03-30T01:14:24.727Z,93736.00
2024-03-30T01:15:24.954Z,93721.00
2024-03-30T01:16:25.247Z,93698.00
2024-03-30T01:17:25.700Z,93709.00
2024-03-30T01:18:24.916Z,93722.00
2024-03-30T01:19:24.939Z,93725.00
2024-03-30T01:20:24.949Z,93724.00
2024-03-30T01:21:25.012Z,93711.00
2024-03-30T01:22:25.021Z,93713.00
2024-03-30T01:23:25.117Z,93725.00
2024-03-30T01:24:25.128Z,93698.00
2024-03-30T01:25:25.095Z,93699.00
2024-03-30T01:26:25.174Z,93722.00
2024-03-30T01:27:25.140Z,93709.00
2024-03-30T01:28:25.188Z,93693.00
2024-03-30T01:29:25.202Z,93702.00
2024-03-30T01:30:25.355Z,93701.00
2024-03-30T01:31:25.413Z,93690.00
2024-03-30T01:32:25.425Z,93670.00
2024-03-30T01:33:25.491Z,93689.00
2024-03-30T01:34:25.484Z,93688.00
2024-03-30T01:35:25.486Z,93675.00
2024-03-30T01:36:25.494Z,93678.00
2024-03-30T01:37:25.609Z,93696.00
2024-03-30T01:38:25.546Z,93685.00
2024-03-30T01:39:25.616Z,93690.00
2024-03-30T01:40:25.674Z,93687.00
2024-03-30T01:41:25.709Z,93710.00
2024-03-30T01:42:25.735Z,93703.00
2024-03-30T01:43:25.716Z,93670.00
2024-03-30T01:44:25.762Z,93675.00
2024-03-30T01:45:25.784Z,93676.00
2024-03-30T01:46:25.836Z,93678.00
2024-03-30T01:47:25.822Z,93673.00
2024-03-30T01:48:25.883Z,93673.00
2024-03-30T01:49:25.900Z,93669.00
2024-03-30T01:50:25.921Z,93663.00
2024-03-30T01:51:25.952Z,93667.00
2024-03-30T01:52:26.009Z,93667.00
2024-03-30T01:53:26.099Z,93668.00
2024-03-30T01:54:26.124Z,93673.00
2024-03-30T01:55:26.061Z,93675.00
2024-03-30T01:56:26.055Z,93672.00
2024-03-30T01:57:26.162Z,93665.00
2024-03-30T01:58:26.184Z,93670.00
2024-03-30T01:59:26.217Z,93662.00
2024-03-30T02:00:26.244Z,93664.00
2024-03-30T02:01:26.253Z,93673.00
2024-03-30T02:02:26.443Z,93657.00
2024-03-30T02:03:26.340Z,93661.00
2024-03-30T02:04:26.401Z,93670.00
2024-03-30T02:05:26.438Z,93664.00
2024-03-30T02:06:26.448Z,93659.00
2024-03-30T02:07:26.499Z,93685.00
2024-03-30T02:08:26.514Z,93658.00
2024-03-30T02:09:26.567Z,93657.00
2024-03-30T02:10:26.674Z,93670.00
2024-03-30T02:11:26.561Z,93646.00
2024-03-30T02:12:26.622Z,93669.00
2024-03-30T02:13:26.662Z,93657.00
2024-03-30T02:14:26.678Z,93662.00
2024-03-30T02:15:26.699Z,93667.00
2024-03-30T02:16:26.701Z,93661.00
2024-03-30T02:17:26.864Z,93659.00
2024-03-30T02:18:26.909Z,93674.00
2024-03-30T02:19:26.840Z,93675.00
2024-03-30T02:20:26.917Z,93676.00
2024-03-30T02:21:26.914Z,93676.00
2024-03-30T02:22:28.105Z,93673.00
2024-03-30T02:23:26.920Z,93678.00
2024-03-30T02:24:27.067Z,93660.00
2024-03-30T02:25:27.071Z,93661.00
2024-03-30T02:26:27.145Z,93667.00
2024-03-30T02:27:27.208Z,93644.00
2024-03-30T02:28:27.172Z,93679.00
2024-03-30T02:29:27.203Z,93669.00
2024-03-30T02:30:27.275Z,93677.00
2024-03-30T02:31:27.215Z,93661.00
2024-03-30T02:32:27.594Z,93665.00
2024-03-30T02:33:27.331Z,93662.00
2024-03-30T02:34:27.388Z,93673.00
2024-03-30T02:35:27.358Z,93680.00
2024-03-30T02:36:27.381Z,93674.00
2024-03-30T02:37:27.434Z,93679.00
2024-03-30T02:38:27.462Z,93685.00
2024-03-30T02:39:27.488Z,93688.00
2024-03-30T02:40:27.535Z,93670.00
2024-03-30T02:41:27.589Z,93678.00
2024-03-30T02:42:27.609Z,93674.00
2024-03-30T02:43:27.609Z,93666.00
2024-03-30T02:44:27.676Z,93669.00
2024-03-30T02:45:27.686Z,93673.00
2024-03-30T02:46:27.691Z,93663.00
2024-03-30T02:47:27.760Z,93677.00
2024-03-30T02:48:27.741Z,93676.00
2024-03-30T02:49:27.860Z,93668.00
2024-03-30T02:50:27.911Z,93662.00
2024-03-30T02:51:27.858Z,93673.00
2024-03-30T02:52:27.905Z,93663.00
2024-03-30T02:53:27.935Z,93688.00
2024-03-30T02:54:27.983Z,93681.00
2024-03-30T02:55:28.023Z,93683.00
2024-03-30T02:56:28.055Z,93683.00
2024-03-30T02:57:28.085Z,93697.00
2024-03-30T02:58:28.073Z,93676.00
2024-03-30T02:59:28.090Z,93690.00
2024-03-30T03:00:28.142Z,93688.00
2024-03-30T03:01:28.145Z,93674.00
2024-03-30T03:02:28.198Z,93678.00
2024-03-30T03:03:28.209Z,93682.00
2024-03-30T03:04:28.225Z,93689.00
2024-03-30T03:05:28.333Z,93689.00
2024-03-30T03:06:28.347Z,93696.00
2024-03-30T03:07:28.447Z,93690.00
2024-03-30T03:08:28.432Z,93683.00
2024-03-30T03:09:28.413Z,93661.00
2024-03-30T03:10:28.460Z,93692.00
2024-03-30T03:11:28.527Z,93668.00
2024-03-30T03:12:28.532Z,93695.00
2024-03-30T03:13:28.635Z,93699.00
2024-03-30T03:14:28.582Z,93681.00
2024-03-30T03:15:28.682Z,93690.00
2024-03-30T03:16:28.696Z,93685.00
2024-03-30T03:17:28.777Z,93684.00
2024-03-30T03:18:28.829Z,93678.00
2024-03-30T03:19:28.831Z,93683.00
2024-03-30T03:20:28.835Z,93664.00
2024-03-30T03:21:28.857Z,93674.00
2024-03-30T03:22:28.939Z,93688.00
2024-03-30T03:23:28.861Z,93687.00
2024-03-30T03:24:28.948Z,93689.00
2024-03-30T03:25:28.983Z,93685.00
2024-03-30T03:26:29.073Z,93692.00
2024-03-30T03:27:29.061Z,93688.00
2024-03-30T03:28:29.087Z,93697.00
2024-03-30T03:29:29.114Z,93692.00
2024-03-30T03:30:29.159Z,93693.00
2024-03-30T03:31:29.203Z,93697.00
2024-03-30T03:32:29.327Z,93697.00
2024-03-30T03:33:29.304Z,93704.00
2024-03-30T03:34:29.344Z,93683.00
2024-03-30T03:35:29.387Z,93705.00
2024-03-30T03:36:29.374Z,93707.00
2024-03-30T03:37:29.550Z,93699.00
2024-03-30T03:38:29.518Z,93715.00
2024-03-30T03:39:29.576Z,93717.00
2024-03-30T03:40:29.569Z,93710.00
2024-03-30T03:41:29.579Z,93714.00
2024-03-30T03:42:29.637Z,93704.00
2024-03-30T03:43:29.655Z,93722.00
2024-03-30T03:44:29.695Z,93725.00
2024-03-30T03:45:31.918Z,93733.00
2024-03-30T03:46:29.831Z,93713.00
2024-03-30T03:47:29.724Z,93731.00
2024-03-30T03:48:29.725Z,93716.00
2024-03-30T03:49:29.699Z,93722.00
2024-03-30T03:50:29.734Z,93717.00
2024-03-30T03:51:29.712Z,93734.00
2024-03-30T03:52:29.751Z,93710.00
2024-03-30T03:53:29.826Z,93711.00
2024-03-30T03:54:29.764Z,93719.00
2024-03-30T03:55:29.790Z,93715.00
2024-03-30T03:56:29.952Z,93724.00
2024-03-30T03:57:29.795Z,93734.00
2024-03-30T03:58:29.789Z,93723.00
2024-03-30T03:59:29.796Z,93742.00
2024-03-30T04:00:29.811Z,93714.00
2024-03-30T04:01:30.422Z,93717.00
2024-03-30T04:02:29.833Z,93720.00
2024-03-30T04:03:29.830Z,93723.00
2024-03-30T04:04:29.845Z,93708.00
2024-03-30T04:05:29.736Z,93712.00
2024-03-30T04:06:29.751Z,93719.00
2024-03-30T04:07:29.856Z,93724.00
2024-03-30T04:08:29.858Z,93719.00
2024-03-30T04:09:29.763Z,93702.00
2024-03-30T04:10:29.771Z,93695.00
2024-03-30T04:11:29.781Z,93687.00
2024-03-30T04:12:29.789Z,93714.00
2024-03-30T04:13:29.787Z,93714.00
2024-03-30T04:14:29.796Z,93706.00
2024-03-30T04:15:29.815Z,93700.00
2024-03-30T04:16:30.828Z,93712.00
2024-03-30T04:17:29.821Z,93701.00
2024-03-30T04:18:29.940Z,93713.00
2024-03-30T04:19:29.832Z,93722.00
2024-03-30T04:20:29.839Z,93707.00
2024-03-30T04:21:29.846Z,93716.00
2024-03-30T04:22:29.854Z,93714.00
2024-03-30T04:23:29.841Z,93727.00
2024-03-30T04:24:29.855Z,93717.00
2024-03-30T04:25:29.870Z,93712.00
2024-03-30T04:26:29.960Z,93703.00
2024-03-30T04:27:29.987Z,93746.00
2024-03-30T04:28:29.994Z,93711.00
2024-03-30T04:29:30.012Z,93707.00
2024-03-30T04:30:30.094Z,93718.00
2024-03-30T04:31:30.116Z,93713.00
2024-03-30T04:32:30.287Z,93713.00
2024-03-30T04:33:30.238Z,93705.00
2024-03-30T04:34:30.242Z,93714.00
2024-03-30T04:35:30.350Z,93729.00
2024-03-30T04:36:30.352Z,93721.00
2024-03-30T04:37:30.376Z,93718.00
2024-03-30T04:38:30.445Z,93715.00
2024-03-30T04:39:30.465Z,93704.00
2024-03-30T04:40:30.435Z,93715.00
2024-03-30T04:41:30.495Z,93694.00
2024-03-30T04:42:38.079Z,93713.00
2024-03-30T04:43:38.098Z,93713.00
2024-03-30T04:44:38.034Z,93704.00
2024-03-30T04:45:38.108Z,93720.00
2024-03-30T04:46:38.149Z,93706.00
2024-03-30T04:47:38.145Z,93717.00
2024-03-30T04:48:38.101Z,93708.00
2024-03-30T04:49:38.075Z,93716.00
2024-03-30T04:50:38.108Z,93706.00
2024-03-30T04:51:38.062Z,93707.00
2024-03-30T04:52:38.052Z,93716.00
2024-03-30T04:53:38.168Z,93726.00
2024-03-30T04:54:38.074Z,93720.00
2024-03-30T04:55:38.068Z,93735.00
2024-03-30T04:56:38.083Z,93732.00
2024-03-30T04:57:38.098Z,93724.00
2024-03-30T04:58:38.115Z,93727.00
2024-03-30T04:59:38.097Z,93730.00
2024-03-30T05:00:38.114Z,93728.00
2024-03-30T05:01:38.090Z,93737.00
2024-03-30T05:02:38.118Z,93748.00
2024-03-30T05:03:38.053Z,93739.00
2024-03-30T05:04:38.125Z,93747.00
2024-03-30T05:05:38.075Z,93743.00
2024-03-30T05:06:38.127Z,93739.00
2024-03-30T05:07:38.137Z,93741.00
2024-03-30T05:08:38.176Z,93741.00
2024-03-30T05:09:38.092Z,93746.00
2024-03-30T05:10:38.104Z,93750.00
2024-03-30T05:11:38.107Z,93744.00
2024-03-30T05:12:38.268Z,93739.00
2024-03-30T05:13:38.114Z,93749.00
2024-03-30T05:14:38.086Z,93734.00
2024-03-30T05:15:38.129Z,93727.00
2024-03-30T05:16:40.302Z,93748.00
2024-03-30T05:17:38.216Z,93733.00
2024-03-30T05:18:38.203Z,93739.00
2024-03-30T05:19:38.229Z,93734.00
2024-03-30T05:20:38.240Z,93757.00
2024-03-30T05:21:38.266Z,93735.00
2024-03-30T05:22:38.293Z,93747.00
2024-03-30T05:23:38.491Z,93751.00
2024-03-30T05:24:38.480Z,93747.00
2024-03-30T05:25:38.471Z,93746.00
2024-03-30T05:26:38.485Z,93735.00
2024-03-30T05:27:38.606Z,93775.00
2024-03-30T05:28:38.521Z,93781.00
2024-03-30T05:29:38.580Z,93751.00
2024-03-30T05:30:38.607Z,93760.00
2024-03-30T05:31:38.655Z,93752.00
2024-03-30T05:32:38.743Z,93754.00
2024-03-30T05:33:38.764Z,93763.00
2024-03-30T05:34:38.842Z,93761.00
2024-03-30T05:35:38.863Z,93758.00
2024-03-30T05:36:38.968Z,93779.00
2024-03-30T05:37:38.885Z,93759.00
2024-03-30T05:38:38.983Z,93757.00
2024-03-30T05:39:38.996Z,93752.00
2024-03-30T05:40:38.998Z,93749.00
2024-03-30T05:41:39.061Z,93762.00
2024-03-30T05:42:39.091Z,93762.00
2024-03-30T05:43:39.233Z,93770.00
2024-03-30T05:44:39.139Z,93758.00
2024-03-30T05:45:39.228Z,93752.00
2024-03-30T05:46:39.375Z,93766.00
2024-03-30T05:47:39.373Z,93753.00
2024-03-30T05:48:39.276Z,93755.00
2024-03-30T05:49:39.357Z,93759.00
2024-03-30T05:50:39.383Z,93763.00
2024-03-30T05:51:39.485Z,93741.00
2024-03-30T05:52:39.506Z,93762.00
2024-03-30T05:53:39.494Z,93737.00
2024-03-30T05:54:39.512Z,93747.00
2024-03-30T05:55:39.603Z,93747.00
2024-03-30T05:56:39.613Z,93747.00
2024-03-30T05:57:39.598Z,93745.00
2024-03-30T05:58:39.635Z,93759.00
2024-03-30T05:59:39.637Z,93755.00
2024-03-30T06:00:39.721Z,93748.00
2024-03-30T06:01:39.748Z,93769.00
2024-03-30T06:02:39.754Z,93763.00
2024-03-30T06:03:39.824Z,93750.00
2024-03-30T06:04:39.859Z,93735.00
2024-03-30T06:05:39.876Z,93744.00
2024-03-30T06:06:39.892Z,93752.00
2024-03-30T06:07:40.008Z,93757.00
2024-03-30T06:08:39.951Z,93745.00
2024-03-30T06:09:40.017Z,93749.00
2024-03-30T06:10:40.004Z,93734.00
2024-03-30T06:11:40.042Z,93736.00
2024-03-30T06:12:40.074Z,93751.00
2024-03-30T06:13:41.059Z,93769.00
2024-03-30T06:14:40.138Z,93745.00
2024-03-30T06:15:40.156Z,93745.00
2024-03-30T06:16:40.218Z,93733.00
2024-03-30T06:17:40.261Z,93757.00
2024-03-30T06:18:40.324Z,93753.00
2024-03-30T06:19:40.330Z,93746.00
2024-03-30T06:20:40.387Z,93744.00
2024-03-30T06:21:40.394Z,93741.00
2024-03-30T06:22:40.472Z,93735.00
2024-03-30T06:23:40.497Z,93735.00
2024-03-30T06:24:40.469Z,93735.00
2024-03-30T06:25:40.550Z,93742.00
2024-03-30T06:26:40.598Z,93725.00
2024-03-30T06:27:40.651Z,93730.00
2024-03-30T06:28:40.693Z,93739.00
2024-03-30T06:29:40.748Z,93738.00
2024-03-30T06:30:40.715Z,93733.00
2024-03-30T06:31:40.784Z,93740.00
2024-03-30T06:32:40.822Z,93719.00
2024-03-30T06:33:40.997Z,93736.00
2024-03-30T06:34:43.159Z,93738.00
2024-03-30T06:35:40.963Z,93741.00
2024-03-30T06:36:40.964Z,93729.00
2024-03-30T06:37:41.045Z,93719.00
2024-03-30T06:38:41.533Z,93728.00
2024-03-30T06:39:41.030Z,93736.00
2024-03-30T06:40:41.088Z,93738.00
2024-03-30T06:41:41.165Z,93732.00
2024-03-30T06:42:41.264Z,93750.00
2024-03-30T06:43:41.260Z,93734.00
2024-03-30T06:44:41.279Z,93739.00
2024-03-30T06:45:41.304Z,93754.00
2024-03-30T06:46:41.342Z,93739.00
2024-03-30T06:47:41.419Z,93734.00
2024-03-30T06:48:41.407Z,93722.00
2024-03-30T06:49:41.416Z,93726.00
2024-03-30T06:50:41.525Z,93742.00
2024-03-30T06:51:41.543Z,93720.00
2024-03-30T06:52:41.559Z,93715.00
2024-03-30T06:53:41.644Z,93724.00
2024-03-30T06:54:41.680Z,93739.00
2024-03-30T06:55:41.698Z,93760.00
2024-03-30T06:56:41.788Z,93726.00
2024-03-30T06:57:41.835Z,93737.00
2024-03-30T06:58:41.916Z,93728.00
2024-03-30T06:59:41.841Z,93720.00
2024-03-30T07:00:41.937Z,93725.00
2024-03-30T07:01:41.949Z,93739.00
2024-03-30T07:02:41.964Z,93728.00
2024-03-30T07:03:42.125Z,93715.00
2024-03-30T07:04:42.062Z,93719.00
2024-03-30T07:05:42.165Z,93720.00
2024-03-30T07:06:42.175Z,93705.00
2024-03-30T07:07:42.195Z,93728.00
2024-03-30T07:08:42.288Z,93737.00
2024-03-30T07:09:42.284Z,93745.00
2024-03-30T07:10:42.404Z,93734.00
2024-03-30T07:11:42.390Z,93732.00
2024-03-30T07:12:42.412Z,93722.00
2024-03-30T07:13:42.424Z,93730.00
2024-03-30T07:14:42.470Z,93736.00
2024-03-30T07:15:42.538Z,93735.00
2024-03-30T07:17:12.149Z,93731.00
2024-03-30T07:17:43.475Z,93745.00
2024-03-30T07:18:42.554Z,93736.00
2024-03-30T07:19:42.556Z,93715.00
2024-03-30T07:20:42.586Z,93738.00
2024-03-30T07:21:42.570Z,93748.00
2024-03-30T07:22:42.592Z,93742.00
2024-03-30T07:23:42.593Z,93741.00
2024-03-30T07:24:42.524Z,93750.00
2024-03-30T07:25:42.607Z,93759.00
2024-03-30T07:26:42.518Z,93734.00
2024-03-30T07:27:55.350Z,93744.00
2024-03-30T07:28:55.318Z,93751.00
2024-03-30T07:29:55.415Z,93727.00
2024-03-30T07:30:55.349Z,93737.00
2024-03-30T07:31:55.344Z,93742.00
2024-03-30T07:32:55.378Z,93738.00
2024-03-30T07:33:55.440Z,93740.00
2024-03-30T07:34:55.375Z,93746.00
2024-03-30T07:35:55.363Z,93748.00
2024-03-30T07:36:55.388Z,93753.00
2024-03-30T07:37:55.326Z,93749.00
2024-03-30T07:38:55.395Z,93753.00
2024-03-30T07:39:55.332Z,93781.00
2024-03-30T07:40:55.374Z,93801.00
2024-03-30T07:41:55.396Z,93756.00
2024-03-30T07:42:55.340Z,93722.00
2024-03-30T07:43:55.361Z,93777.00
2024-03-30T07:44:55.325Z,93752.00
2024-03-30T07:45:55.438Z,93780.00
2024-03-30T07:46:55.388Z,93771.00
2024-03-30T07:47:55.445Z,93744.00
2024-03-30T07:48:55.443Z,93750.00
2024-03-30T07:49:56.001Z,93754.00
2024-03-30T07:50:55.351Z,93773.00
2024-03-30T07:51:55.392Z,93729.00
2024-03-30T07:52:55.382Z,93756.00
2024-03-30T07:53:55.504Z,93774.00
2024-03-30T07:54:55.394Z,93773.00
2024-03-30T07:55:55.400Z,93755.00
2024-03-30T07:56:55.414Z,93750.00
2024-03-30T07:57:55.407Z,93774.00
2024-03-30T07:58:56.666Z,93763.00
2024-03-30T07:59:55.453Z,93755.00
2024-03-30T08:00:55.458Z,93740.00
2024-03-30T08:01:55.491Z,93766.00
2024-03-30T08:02:55.563Z,93772.00
2024-03-30T08:03:55.605Z,93754.00
2024-03-30T08:04:55.601Z,93765.00
2024-03-30T08:05:55.687Z,93763.00
2024-03-30T08:06:55.614Z,93754.00
2024-03-30T08:07:55.683Z,93754.00
2024-03-30T08:08:55.784Z,93770.00
2024-03-30T08:09:55.802Z,93779.00
2024-03-30T08:10:55.813Z,93747.00
2024-03-30T08:11:55.836Z,93772.00
2024-03-30T08:12:55.875Z,93717.00
2024-03-30T08:13:55.933Z,93760.00
2024-03-30T08:14:55.988Z,93757.00
2024-03-30T08:15:56.037Z,93748.00
2024-03-30T08:16:56.148Z,93766.00
2024-03-30T08:17:56.079Z,93745.00
2024-03-30T08:18:56.172Z,93767.00
2024-03-30T08:19:56.164Z,93750.00
2024-03-30T08:20:56.184Z,93746.00
2024-03-30T08:21:56.228Z,93774.00
2024-03-30T08:22:56.328Z,93766.00
2024-03-30T08:23:56.343Z,93752.00
2024-03-30T08:24:56.406Z,93754.00
2024-03-30T08:25:56.413Z,93770.00
2024-03-30T08:26:56.444Z,93730.00
2024-03-30T08:27:56.482Z,93744.00
2024-03-30T08:28:57.374Z,93728.00
2024-03-30T08:29:56.548Z,93732.00
2024-03-30T08:30:56.560Z,93754.00
2024-03-30T08:31:56.600Z,93728.00
2024-03-30T08:32:56.613Z,93728.00
2024-03-30T08:33:56.686Z,93714.00
2024-03-30T08:34:56.693Z,93719.00
2024-03-30T08:35:56.723Z,93726.00
2024-03-30T08:36:56.824Z,93751.00
2024-03-30T08:37:56.843Z,93731.00
2024-03-30T08:38:56.852Z,93732.00
2024-03-30T08:39:56.927Z,93725.00
2024-03-30T08:40:56.916Z,93711.00
2024-03-30T08:41:56.881Z,93701.00
2024-03-30T08:42:56.949Z,93727.00
2024-03-30T08:43:57.059Z,93733.00
2024-03-30T08:44:57.076Z,93731.00
2024-03-30T08:45:57.074Z,93717.00
2024-03-30T08:46:57.172Z,93715.00
2024-03-30T08:47:57.195Z,93721.00
2024-03-30T08:48:57.301Z,93706.00
2024-03-30T08:49:57.244Z,93748.00
2024-03-30T08:50:57.323Z,93728.00
2024-03-30T08:51:57.419Z,93710.00
2024-03-30T08:52:57.370Z,93706.00
2024-03-30T08:53:57.530Z,93704.00
2024-03-30T08:54:57.547Z,93685.00
2024-03-30T08:55:57.484Z,93705.00
2024-03-30T08:56:57.560Z,93732.00
2024-03-30T08:57:57.591Z,93710.00
2024-03-30T08:58:57.683Z,93697.00
2024-03-30T08:59:58.081Z,93685.00
2024-03-30T09:00:57.703Z,93702.00
2024-03-30T09:01:57.740Z,93688.00
2024-03-30T09:02:57.737Z,93688.00
2024-03-30T09:03:57.931Z,93683.00
2024-03-30T09:04:58.007Z,93688.00
2024-03-30T09:05:57.920Z,93688.00
2024-03-30T09:06:58.027Z,93687.00
2024-03-30T09:07:57.948Z,93692.00
2024-03-30T09:08:58.065Z,93685.00
2024-03-30T09:09:58.149Z,93678.00
2024-03-30T09:10:58.073Z,93674.00
2024-03-30T09:11:58.164Z,93671.00
2024-03-30T09:12:58.185Z,93656.00
2024-03-30T09:13:58.204Z,93679.00
2024-03-30T09:14:58.213Z,93656.00
2024-03-30T09:15:59.838Z,93661.00
2024-03-30T09:16:58.300Z,93673.00
2024-03-30T09:17:58.321Z,93679.00
2024-03-30T09:18:58.320Z,93653.00
2024-03-30T09:19:58.324Z,93663.00
2024-03-30T09:20:58.343Z,93672.00
2024-03-30T09:21:58.330Z,93650.00
2024-03-30T09:22:58.345Z,93668.00
2024-03-30T09:23:58.395Z,93648.00
2024-03-30T09:24:58.300Z,93664.00
2024-03-30T09:25:58.275Z,93647.00
2024-03-30T09:26:58.276Z,93662.00
2024-03-30T09:27:58.279Z,93651.00
2024-03-30T09:28:58.366Z,93597.00
2024-03-30T09:29:58.299Z,93626.00
2024-03-30T09:30:58.403Z,93650.00
2024-03-30T09:31:58.298Z,93643.00
2024-03-30T09:32:58.318Z,93637.00
2024-03-30T09:33:58.312Z,93649.00
2024-03-30T09:34:58.320Z,93616.00
2024-03-30T09:35:58.312Z,93633.00
2024-03-30T09:36:59.890Z,93630.00
2024-03-30T09:37:58.295Z,93615.00
2024-03-30T09:38:58.371Z,93628.00
2024-03-30T09:39:58.293Z,93639.00
2024-03-30T09:40:58.287Z,93615.00
2024-03-30T09:41:58.382Z,93618.00
2024-03-30T09:42:58.389Z,93606.00
2024-03-30T09:43:58.373Z,93629.00
2024-03-30T09:44:58.319Z,93604.00
2024-03-30T09:45:58.318Z,93595.00
2024-03-30T09:46:58.320Z,93607.00
2024-03-30T09:47:58.334Z,93597.00
2024-03-30T09:48:58.323Z,93581.00
2024-03-30T09:49:58.315Z,93597.00
2024-03-30T09:50:58.319Z,93632.00
2024-03-30T09:51:58.463Z,93598.00
2024-03-30T09:52:58.878Z,93581.00
2024-03-30T09:53:59.285Z,93598.00
2024-03-30T09:54:58.372Z,93569.00
2024-03-30T09:55:58.282Z,93578.00
2024-03-30T09:56:58.388Z,93582.00
2024-03-30T09:57:58.386Z,93577.00
2024-03-30T09:58:58.400Z,93568.00
2024-03-30T09:59:58.349Z,93584.00
2024-03-30T10:00:58.403Z,93563.00
2024-03-30T10:01:58.320Z,93563.00
2024-03-30T10:02:58.322Z,93546.00
2024-03-30T10:04:01.454Z,93566.00
2024-03-30T10:04:58.327Z,93552.00
2024-03-30T10:05:58.316Z,93564.00
2024-03-30T10:06:58.326Z,93555.00
2024-03-30T10:07:58.344Z,93543.00
2024-03-30T10:08:58.355Z,93547.00
2024-03-30T10:09:58.349Z,93571.00
2024-03-30T10:10:59.308Z,93548.00
2024-03-30T10:11:58.359Z,93563.00
2024-03-30T10:12:58.395Z,93557.00
2024-03-30T10:14:06.986Z,93552.00
2024-03-30T10:14:59.429Z,93583.00
2024-03-30T10:15:59.249Z,93548.00
2024-03-30T10:16:58.403Z,93553.00
2024-03-30T10:17:58.422Z,93555.00
2024-03-30T10:18:58.391Z,93557.00
2024-03-30T10:19:58.386Z,93553.00
2024-03-30T10:20:58.339Z,93566.00
2024-03-30T10:21:58.393Z,93563.00
2024-03-30T10:22:58.351Z,93560.00
2024-03-30T10:23:58.867Z,93588.00
2024-03-30T10:24:58.404Z,93557.00
2024-03-30T10:25:58.367Z,93552.00
2024-03-30T10:26:58.359Z,93564.00
2024-03-30T10:27:58.438Z,93558.00
2024-03-30T10:28:58.480Z,93562.00
2024-03-30T10:29:58.505Z,93559.00
2024-03-30T10:30:58.611Z,93572.00
2024-03-30T10:31:58.513Z,93570.00
2024-03-30T10:32:58.633Z,93556.00
2024-03-30T10:33:58.674Z,93568.00
2024-03-30T10:34:58.732Z,93582.00
2024-03-30T10:35:58.724Z,93564.00
2024-03-30T10:36:58.706Z,93561.00
2024-03-30T10:37:58.765Z,93559.00
2024-03-30T10:38:58.790Z,93587.00
2024-03-30T10:39:58.824Z,93576.00
2024-03-30T10:40:58.844Z,93544.00
2024-03-30T10:41:58.899Z,93582.00
2024-03-30T10:42:58.895Z,93574.00
2024-03-30T10:43:59.002Z,93578.00
2024-03-30T10:44:59.020Z,93577.00
2024-03-30T10:45:59.024Z,93577.00
2024-03-30T10:46:59.043Z,93577.00
2024-03-30T10:47:59.134Z,93585.00
2024-03-30T10:48:59.150Z,93585.00
2024-03-30T10:49:59.228Z,93581.00
2024-03-30T10:50:59.160Z,93581.00
2024-03-30T10:51:59.237Z,93581.00
2024-03-30T10:52:59.283Z,93566.00
2024-03-30T10:53:59.390Z,93583.00
2024-03-30T10:54:59.288Z,93592.00
2024-03-30T10:55:59.352Z,93595.00
2024-03-30T10:56:59.412Z,93580.00
2024-03-30T10:57:59.442Z,93584.00
2024-03-30T10:58:59.533Z,93608.00
2024-03-30T10:59:59.531Z,93583.00
2024-03-30T11:00:59.642Z,93602.00
2024-03-30T11:01:59.648Z,93594.00
2024-03-30T11:02:59.693Z,93583.00
2024-03-30T11:03:59.762Z,93608.00
2024-03-30T11:04:59.791Z,93581.00
2024-03-30T11:05:59.778Z,93590.00
2024-03-30T11:06:59.828Z,93595.00
2024-03-30T11:08:02.897Z,93601.00
2024-03-30T11:08:59.949Z,93599.00
2024-03-30T11:09:59.910Z,93604.00
2024-03-30T11:10:59.963Z,93610.00
2024-03-30T11:11:59.950Z,93586.00
2024-03-30T11:12:59.903Z,93604.00
2024-03-30T11:13:59.938Z,93606.00
2024-03-30T11:14:59.927Z,93582.00
2024-03-30T11:15:59.890Z,93601.00
2024-03-30T11:16:59.985Z,93600.00
2024-03-30T11:17:59.906Z,93610.00
2024-03-30T11:18:59.975Z,93619.00
2024-03-30T11:19:59.995Z,93604.00
2024-03-30T11:20:59.945Z,93598.00
2024-03-30T11:21:59.938Z,93606.00
2024-03-30T11:23:00.060Z,93603.00
2024-03-30T11:24:00.304Z,93624.00
2024-03-30T11:25:00.037Z,93606.00
2024-03-30T11:25:59.935Z,93635.00
2024-03-30T11:26:59.953Z,93597.00
2024-03-30T11:27:59.960Z,93600.00
2024-03-30T11:29:00.058Z,93615.00
2024-03-30T11:29:59.973Z,93606.00
2024-03-30T11:30:59.938Z,93606.00
2024-03-30T11:32:00.029Z,93615.00
2024-03-30T11:32:59.995Z,93620.00
2024-03-30T11:33:59.996Z,93616.00
2024-03-30T11:35:00.020Z,93607.00
2024-03-30T11:35:59.947Z,93598.00
2024-03-30T11:37:00.024Z,93605.00
2024-03-30T11:37:59.920Z,93606.00
2024-03-30T11:39:02.005Z,93619.00
2024-03-30T11:40:00.239Z,93621.00
2024-03-30T11:40:59.946Z,93618.00
2024-03-30T11:42:00.074Z,93615.00
2024-03-30T11:42:59.950Z,93611.00
2024-03-30T11:44:00.074Z,93618.00
2024-03-30T11:45:00.002Z,93630.00